<?xml version="1.0" encoding="UTF-8" standalone="no" ?>
<gpx xmlns="http://www.topografix.com/GPX/1/1" xmlns:xsi="http://www.w3.org/2001/XMLSchema-instance" xsi:schemaLocation="http://www.topografix.com/GPX/1/1 http://www.topografix.com/GPX/1/1/gpx.xsd" version="1.1" creator="VisuGPX - https://www.visugpx.com">
  <metadata>
    <name>Pic des 3 seigneurs</name>
    <desc><![CDATA[Rando au pic des 3 seigneurs depuis la route du port de l'hers]]></desc>
  </metadata>
  <wpt lat="42.81656" lon="1.41596">
    <ele>1940.1</ele>
    <name><![CDATA[Bifurcation-Droite]]></name>
    <desc><![CDATA[Bifurcation-Droite



13-SEP-13 15:03:09]]></desc>
    <cmt><![CDATA[Bifurcation-Droite



13-SEP-13 15:03:09]]></cmt>
  </wpt>
  <wpt lat="42.82933" lon="1.43414">
    <ele>2033</ele>
    <name><![CDATA[Croisement-Boucle-2033m]]></name>
    <desc><![CDATA[Croisement-Boucle-2033m



13-SEP-13 11:45:32]]></desc>
    <cmt><![CDATA[Croisement-Boucle-2033m



13-SEP-13 11:45:32]]></cmt>
  </wpt>
  <wpt lat="42.80654" lon="1.4208">
    <ele>1410</ele>
    <name><![CDATA[Depart-Virage-1410m]]></name>
    <desc><![CDATA[Depart-Virage-1410m]]></desc>
    <cmt><![CDATA[Depart-Virage-1410m]]></cmt>
  </wpt>
  <wpt lat="42.80638" lon="1.41266">
    <ele>1516</ele>
    <name><![CDATA[Départementale-D318a]]></name>
    <desc><![CDATA[Départementale-D318a]]></desc>
    <cmt><![CDATA[Départementale-D318a]]></cmt>
  </wpt>
  <wpt lat="42.82015" lon="1.43775">
    <ele>1760</ele>
    <name><![CDATA[Etang-d-Arbu-1760m]]></name>
    <desc><![CDATA[Etang-d-Arbu-1760m]]></desc>
    <cmt><![CDATA[Etang-d-Arbu-1760m]]></cmt>
  </wpt>
  <wpt lat="42.82618" lon="1.42518">
    <ele>2043</ele>
    <name><![CDATA[Pic de Barres-2043m]]></name>
    <desc><![CDATA[Pic de Barres-2043m]]></desc>
    <cmt><![CDATA[Pic de Barres-2043m]]></cmt>
  </wpt>
  <wpt lat="42.82102" lon="1.41781">
    <ele>2002</ele>
    <name><![CDATA[Pic-de-Fontanette-2002m]]></name>
    <desc><![CDATA[Pic-de-Fontanette-2002m



13-SEP-13 14:51:26]]></desc>
    <cmt><![CDATA[Pic-de-Fontanette-2002m



13-SEP-13 14:51:26]]></cmt>
  </wpt>
  <wpt lat="42.8305" lon="1.44008">
    <ele>2199</ele>
    <name><![CDATA[Pic-des-Trois-Seigneurs-2199m]]></name>
    <desc><![CDATA[Pic-des-Trois-Seigneurs-2199m



13-SEP-13 12:19:09]]></desc>
    <cmt><![CDATA[Pic-des-Trois-Seigneurs-2199m



13-SEP-13 12:19:09]]></cmt>
  </wpt>
  <wpt lat="42.81166" lon="1.4332">
    <ele>1418.9</ele>
    <name><![CDATA[Pont de Ganiou]]></name>
    <desc><![CDATA[Pont de Ganiou]]></desc>
    <cmt><![CDATA[Pont de Ganiou]]></cmt>
  </wpt>
  <wpt lat="42.80646" lon="1.41155">
    <ele>1517</ele>
    <name><![CDATA[Port de Lers Ou de Massat-1517m]]></name>
    <desc><![CDATA[Port de Lers Ou de Massat-1517m]]></desc>
    <cmt><![CDATA[Port de Lers Ou de Massat-1517m]]></cmt>
  </wpt>
  <trk>
    <name><![CDATA[Pic-des-Trois-Seigneurs-2199m]]></name>
    <trkseg>
      <trkpt lat="42.80651" lon="1.42081">
        <ele>1407.5075683594</ele>
        <time>2013-09-13T07:32:33Z</time>
      </trkpt>
      <trkpt lat="42.80661" lon="1.42121">
        <ele>1402.7006835938</ele>
        <time>2013-09-13T07:33:26Z</time>
      </trkpt>
      <trkpt lat="42.8067" lon="1.4214">
        <ele>1399.3361816406</ele>
        <time>2013-09-13T07:33:43Z</time>
      </trkpt>
      <trkpt lat="42.80682" lon="1.42163">
        <ele>1396.4523925781</ele>
        <time>2013-09-13T07:34:10Z</time>
      </trkpt>
      <trkpt lat="42.807" lon="1.42187">
        <ele>1396.4523925781</ele>
        <time>2013-09-13T07:34:37Z</time>
      </trkpt>
      <trkpt lat="42.80708" lon="1.42235">
        <ele>1389.2424316406</ele>
        <time>2013-09-13T07:35:20Z</time>
      </trkpt>
      <trkpt lat="42.80711" lon="1.42264">
        <ele>1388.7619628906</ele>
        <time>2013-09-13T07:35:41Z</time>
      </trkpt>
      <trkpt lat="42.80713" lon="1.42285">
        <ele>1386.8388671875</ele>
        <time>2013-09-13T07:35:53Z</time>
      </trkpt>
      <trkpt lat="42.80717" lon="1.42316">
        <ele>1388.7619628906</ele>
        <time>2013-09-13T07:36:15Z</time>
      </trkpt>
      <trkpt lat="42.80723" lon="1.42333">
        <ele>1388.28125</ele>
        <time>2013-09-13T07:36:35Z</time>
      </trkpt>
      <trkpt lat="42.80743" lon="1.42367">
        <ele>1387.3195800781</ele>
        <time>2013-09-13T07:36:59Z</time>
      </trkpt>
      <trkpt lat="42.80756" lon="1.42386">
        <ele>1387.3195800781</ele>
        <time>2013-09-13T07:37:13Z</time>
      </trkpt>
      <trkpt lat="42.80765" lon="1.42405">
        <ele>1385.8776855469</ele>
        <time>2013-09-13T07:37:26Z</time>
      </trkpt>
      <trkpt lat="42.80786" lon="1.42437">
        <ele>1386.8388671875</ele>
        <time>2013-09-13T07:37:58Z</time>
      </trkpt>
      <trkpt lat="42.80789" lon="1.42457">
        <ele>1387.8002929688</ele>
        <time>2013-09-13T07:38:20Z</time>
      </trkpt>
      <trkpt lat="42.80805" lon="1.42463">
        <ele>1385.3969726562</ele>
        <time>2013-09-13T07:38:33Z</time>
      </trkpt>
      <trkpt lat="42.80794" lon="1.42498">
        <ele>1386.3583984375</ele>
        <time>2013-09-13T07:38:57Z</time>
      </trkpt>
      <trkpt lat="42.80795" lon="1.42523">
        <ele>1387.3195800781</ele>
        <time>2013-09-13T07:39:14Z</time>
      </trkpt>
      <trkpt lat="42.80785" lon="1.42565">
        <ele>1388.28125</ele>
        <time>2013-09-13T07:39:44Z</time>
      </trkpt>
      <trkpt lat="42.8078" lon="1.42587">
        <ele>1389.2424316406</ele>
        <time>2013-09-13T07:40:10Z</time>
      </trkpt>
      <trkpt lat="42.80775" lon="1.42611">
        <ele>1390.6843261719</ele>
        <time>2013-09-13T07:40:24Z</time>
      </trkpt>
      <trkpt lat="42.80771" lon="1.42635">
        <ele>1392.6071777344</ele>
        <time>2013-09-13T07:40:40Z</time>
      </trkpt>
      <trkpt lat="42.80764" lon="1.42678">
        <ele>1395.0102539062</ele>
        <time>2013-09-13T07:41:08Z</time>
      </trkpt>
      <trkpt lat="42.80761" lon="1.4272">
        <ele>1397.4135742188</ele>
        <time>2013-09-13T07:41:46Z</time>
      </trkpt>
      <trkpt lat="42.80761" lon="1.42751">
        <ele>1397.8942871094</ele>
        <time>2013-09-13T07:42:03Z</time>
      </trkpt>
      <trkpt lat="42.80772" lon="1.42795">
        <ele>1399.8168945312</ele>
        <time>2013-09-13T07:42:30Z</time>
      </trkpt>
      <trkpt lat="42.80783" lon="1.42814">
        <ele>1401.2587890625</ele>
        <time>2013-09-13T07:42:54Z</time>
      </trkpt>
      <trkpt lat="42.80797" lon="1.42819">
        <ele>1402.2199707031</ele>
        <time>2013-09-13T07:43:20Z</time>
      </trkpt>
      <trkpt lat="42.80812" lon="1.4282">
        <ele>1404.1430664062</ele>
        <time>2013-09-13T07:43:32Z</time>
      </trkpt>
      <trkpt lat="42.80824" lon="1.42828">
        <ele>1404.1430664062</ele>
        <time>2013-09-13T07:44:27Z</time>
      </trkpt>
      <trkpt lat="42.80846" lon="1.4283">
        <ele>1405.5849609375</ele>
        <time>2013-09-13T07:44:50Z</time>
      </trkpt>
      <trkpt lat="42.80866" lon="1.42822">
        <ele>1406.0654296875</ele>
        <time>2013-09-13T07:45:13Z</time>
      </trkpt>
      <trkpt lat="42.80883" lon="1.42824">
        <ele>1406.5461425781</ele>
        <time>2013-09-13T07:45:30Z</time>
      </trkpt>
      <trkpt lat="42.80906" lon="1.42817">
        <ele>1407.5075683594</ele>
        <time>2013-09-13T07:45:55Z</time>
      </trkpt>
      <trkpt lat="42.80922" lon="1.42807">
        <ele>1414.2365722656</ele>
        <time>2013-09-13T07:46:17Z</time>
      </trkpt>
      <trkpt lat="42.80936" lon="1.42799">
        <ele>1416.6398925781</ele>
        <time>2013-09-13T07:46:38Z</time>
      </trkpt>
      <trkpt lat="42.80956" lon="1.42795">
        <ele>1415.6787109375</ele>
        <time>2013-09-13T07:47:01Z</time>
      </trkpt>
      <trkpt lat="42.80973" lon="1.42787">
        <ele>1417.6010742188</ele>
        <time>2013-09-13T07:47:16Z</time>
      </trkpt>
      <trkpt lat="42.80988" lon="1.4279">
        <ele>1419.5239257812</ele>
        <time>2013-09-13T07:47:30Z</time>
      </trkpt>
      <trkpt lat="42.81013" lon="1.42795">
        <ele>1420.0046386719</ele>
        <time>2013-09-13T07:48:03Z</time>
      </trkpt>
      <trkpt lat="42.81021" lon="1.42811">
        <ele>1417.6010742188</ele>
        <time>2013-09-13T07:48:22Z</time>
      </trkpt>
      <trkpt lat="42.81029" lon="1.42826">
        <ele>1416.1591796875</ele>
        <time>2013-09-13T07:48:39Z</time>
      </trkpt>
      <trkpt lat="42.81044" lon="1.42837">
        <ele>1414.2365722656</ele>
        <time>2013-09-13T07:49:18Z</time>
      </trkpt>
      <trkpt lat="42.81049" lon="1.4286">
        <ele>1412.3139648438</ele>
        <time>2013-09-13T07:49:35Z</time>
      </trkpt>
      <trkpt lat="42.81056" lon="1.42881">
        <ele>1409.9106445312</ele>
        <time>2013-09-13T07:49:48Z</time>
      </trkpt>
      <trkpt lat="42.81062" lon="1.42917">
        <ele>1411.8334960938</ele>
        <time>2013-09-13T07:50:12Z</time>
      </trkpt>
      <trkpt lat="42.81067" lon="1.42937">
        <ele>1413.275390625</ele>
        <time>2013-09-13T07:50:31Z</time>
      </trkpt>
      <trkpt lat="42.81072" lon="1.42956">
        <ele>1412.3139648438</ele>
        <time>2013-09-13T07:50:45Z</time>
      </trkpt>
      <trkpt lat="42.81076" lon="1.42986">
        <ele>1410.8720703125</ele>
        <time>2013-09-13T07:51:03Z</time>
      </trkpt>
      <trkpt lat="42.81083" lon="1.43007">
        <ele>1409.9106445312</ele>
        <time>2013-09-13T07:51:17Z</time>
      </trkpt>
      <trkpt lat="42.81092" lon="1.43037">
        <ele>1412.7946777344</ele>
        <time>2013-09-13T07:51:45Z</time>
      </trkpt>
      <trkpt lat="42.81095" lon="1.43057">
        <ele>1411.3527832031</ele>
        <time>2013-09-13T07:52:06Z</time>
      </trkpt>
      <trkpt lat="42.81095" lon="1.43092">
        <ele>1409.9106445312</ele>
        <time>2013-09-13T07:52:28Z</time>
      </trkpt>
      <trkpt lat="42.81105" lon="1.43113">
        <ele>1412.3139648438</ele>
        <time>2013-09-13T07:52:49Z</time>
      </trkpt>
      <trkpt lat="42.81103" lon="1.43137">
        <ele>1412.3139648438</ele>
        <time>2013-09-13T07:53:06Z</time>
      </trkpt>
      <trkpt lat="42.81107" lon="1.43154">
        <ele>1410.8720703125</ele>
        <time>2013-09-13T07:53:20Z</time>
      </trkpt>
      <trkpt lat="42.81114" lon="1.43184">
        <ele>1409.4301757812</ele>
        <time>2013-09-13T07:53:41Z</time>
      </trkpt>
      <trkpt lat="42.81117" lon="1.43203">
        <ele>1412.7946777344</ele>
        <time>2013-09-13T07:53:55Z</time>
      </trkpt>
      <trkpt lat="42.81123" lon="1.4322">
        <ele>1414.2365722656</ele>
        <time>2013-09-13T07:54:14Z</time>
      </trkpt>
      <trkpt lat="42.81136" lon="1.43246">
        <ele>1414.2365722656</ele>
        <time>2013-09-13T07:54:39Z</time>
      </trkpt>
      <trkpt lat="42.81147" lon="1.43264">
        <ele>1415.6787109375</ele>
        <time>2013-09-13T07:54:54Z</time>
      </trkpt>
      <trkpt lat="42.81155" lon="1.4329">
        <ele>1417.1206054688</ele>
        <time>2013-09-13T07:55:23Z</time>
      </trkpt>
      <trkpt lat="42.81163" lon="1.43317">
        <ele>1418.5625</ele>
        <time>2013-09-13T07:55:46Z</time>
      </trkpt>
      <trkpt lat="42.81174" lon="1.43316">
        <ele>1419.5239257812</ele>
        <time>2013-09-13T07:56:17Z</time>
      </trkpt>
      <trkpt lat="42.81167" lon="1.43332">
        <ele>1420.4853515625</ele>
        <time>2013-09-13T07:56:47Z</time>
      </trkpt>
      <trkpt lat="42.81169" lon="1.4336">
        <ele>1421.9272460938</ele>
        <time>2013-09-13T07:57:11Z</time>
      </trkpt>
      <trkpt lat="42.81179" lon="1.43373">
        <ele>1422.888671875</ele>
        <time>2013-09-13T07:57:25Z</time>
      </trkpt>
      <trkpt lat="42.81186" lon="1.43389">
        <ele>1426.2531738281</ele>
        <time>2013-09-13T07:57:45Z</time>
      </trkpt>
      <trkpt lat="42.81205" lon="1.43407">
        <ele>1429.6176757812</ele>
        <time>2013-09-13T07:58:09Z</time>
      </trkpt>
      <trkpt lat="42.81214" lon="1.43428">
        <ele>1432.5017089844</ele>
        <time>2013-09-13T07:58:28Z</time>
      </trkpt>
      <trkpt lat="42.81226" lon="1.43429">
        <ele>1440.6728515625</ele>
        <time>2013-09-13T07:59:19Z</time>
      </trkpt>
      <trkpt lat="42.81235" lon="1.43426">
        <ele>1443.5568847656</ele>
        <time>2013-09-13T07:59:38Z</time>
      </trkpt>
      <trkpt lat="42.8124" lon="1.43451">
        <ele>1448.36328125</ele>
        <time>2013-09-13T08:00:16Z</time>
      </trkpt>
      <trkpt lat="42.81241" lon="1.43473">
        <ele>1452.2087402344</ele>
        <time>2013-09-13T08:00:52Z</time>
      </trkpt>
      <trkpt lat="42.81239" lon="1.43498">
        <ele>1457.0153808594</ele>
        <time>2013-09-13T08:01:20Z</time>
      </trkpt>
      <trkpt lat="42.81238" lon="1.43523">
        <ele>1461.3413085938</ele>
        <time>2013-09-13T08:01:48Z</time>
      </trkpt>
      <trkpt lat="42.81224" lon="1.43545">
        <ele>1464.2250976562</ele>
        <time>2013-09-13T08:02:12Z</time>
      </trkpt>
      <trkpt lat="42.8121" lon="1.43561">
        <ele>1466.1477050781</ele>
        <time>2013-09-13T08:02:41Z</time>
      </trkpt>
      <trkpt lat="42.81215" lon="1.43584">
        <ele>1473.3579101562</ele>
        <time>2013-09-13T08:03:26Z</time>
      </trkpt>
      <trkpt lat="42.81223" lon="1.436">
        <ele>1479.6062011719</ele>
        <time>2013-09-13T08:03:56Z</time>
      </trkpt>
      <trkpt lat="42.81221" lon="1.43621">
        <ele>1487.7775878906</ele>
        <time>2013-09-13T08:04:47Z</time>
      </trkpt>
      <trkpt lat="42.81214" lon="1.43638">
        <ele>1491.6228027344</ele>
        <time>2013-09-13T08:05:11Z</time>
      </trkpt>
      <trkpt lat="42.81228" lon="1.43649">
        <ele>1497.8713378906</ele>
        <time>2013-09-13T08:05:43Z</time>
      </trkpt>
      <trkpt lat="42.81242" lon="1.43659">
        <ele>1501.2360839844</ele>
        <time>2013-09-13T08:06:30Z</time>
      </trkpt>
      <trkpt lat="42.81237" lon="1.43677">
        <ele>1506.5231933594</ele>
        <time>2013-09-13T08:06:55Z</time>
      </trkpt>
      <trkpt lat="42.81238" lon="1.43695">
        <ele>1516.1364746094</ele>
        <time>2013-09-13T08:07:42Z</time>
      </trkpt>
      <trkpt lat="42.81252" lon="1.43702">
        <ele>1523.8269042969</ele>
        <time>2013-09-13T08:08:32Z</time>
      </trkpt>
      <trkpt lat="42.81249" lon="1.43724">
        <ele>1530.5561523438</ele>
        <time>2013-09-13T08:09:09Z</time>
      </trkpt>
      <trkpt lat="42.81251" lon="1.43728">
        <ele>1535.3627929688</ele>
        <time>2013-09-13T08:09:57Z</time>
      </trkpt>
      <trkpt lat="42.81264" lon="1.43732">
        <ele>1541.1306152344</ele>
        <time>2013-09-13T08:10:33Z</time>
      </trkpt>
      <trkpt lat="42.81278" lon="1.43733">
        <ele>1550.7438964844</ele>
        <time>2013-09-13T08:11:12Z</time>
      </trkpt>
      <trkpt lat="42.81292" lon="1.43731">
        <ele>1558.9150390625</ele>
        <time>2013-09-13T08:12:00Z</time>
      </trkpt>
      <trkpt lat="42.81293" lon="1.43733">
        <ele>1560.8376464844</ele>
        <time>2013-09-13T08:13:11Z</time>
      </trkpt>
      <trkpt lat="42.81292" lon="1.43752">
        <ele>1564.6831054688</ele>
        <time>2013-09-13T08:13:31Z</time>
      </trkpt>
      <trkpt lat="42.81295" lon="1.43769">
        <ele>1571.8928222656</ele>
        <time>2013-09-13T08:14:10Z</time>
      </trkpt>
      <trkpt lat="42.81303" lon="1.43783">
        <ele>1580.0642089844</ele>
        <time>2013-09-13T08:14:52Z</time>
      </trkpt>
      <trkpt lat="42.81316" lon="1.43793">
        <ele>1586.7932128906</ele>
        <time>2013-09-13T08:15:38Z</time>
      </trkpt>
      <trkpt lat="42.81333" lon="1.43801">
        <ele>1593.0417480469</ele>
        <time>2013-09-13T08:16:16Z</time>
      </trkpt>
      <trkpt lat="42.81342" lon="1.43811">
        <ele>1600.251953125</ele>
        <time>2013-09-13T08:16:59Z</time>
      </trkpt>
      <trkpt lat="42.81352" lon="1.4382">
        <ele>1610.3454589844</ele>
        <time>2013-09-13T08:17:50Z</time>
      </trkpt>
      <trkpt lat="42.81358" lon="1.43804">
        <ele>1609.3842773438</ele>
        <time>2013-09-13T08:18:19Z</time>
      </trkpt>
      <trkpt lat="42.81373" lon="1.43797">
        <ele>1612.2683105469</ele>
        <time>2013-09-13T08:18:35Z</time>
      </trkpt>
      <trkpt lat="42.81401" lon="1.4378">
        <ele>1615.6330566406</ele>
        <time>2013-09-13T08:19:12Z</time>
      </trkpt>
      <trkpt lat="42.81417" lon="1.43779">
        <ele>1617.0749511719</ele>
        <time>2013-09-13T08:19:30Z</time>
      </trkpt>
      <trkpt lat="42.81433" lon="1.43775">
        <ele>1620.9201660156</ele>
        <time>2013-09-13T08:19:57Z</time>
      </trkpt>
      <trkpt lat="42.81444" lon="1.43765">
        <ele>1619.9587402344</ele>
        <time>2013-09-13T08:20:18Z</time>
      </trkpt>
      <trkpt lat="42.81459" lon="1.43774">
        <ele>1631.0141601562</ele>
        <time>2013-09-13T08:21:06Z</time>
      </trkpt>
      <trkpt lat="42.81474" lon="1.43776">
        <ele>1634.3786621094</ele>
        <time>2013-09-13T08:21:32Z</time>
      </trkpt>
      <trkpt lat="42.81481" lon="1.43793">
        <ele>1644.953125</ele>
        <time>2013-09-13T08:22:27Z</time>
      </trkpt>
      <trkpt lat="42.81492" lon="1.43782">
        <ele>1646.8757324219</ele>
        <time>2013-09-13T08:22:50Z</time>
      </trkpt>
      <trkpt lat="42.81504" lon="1.43773">
        <ele>1650.2404785156</ele>
        <time>2013-09-13T08:23:19Z</time>
      </trkpt>
      <trkpt lat="42.81514" lon="1.43767">
        <ele>1653.6049804688</ele>
        <time>2013-09-13T08:24:04Z</time>
      </trkpt>
      <trkpt lat="42.81527" lon="1.43778">
        <ele>1657.9309082031</ele>
        <time>2013-09-13T08:24:23Z</time>
      </trkpt>
      <trkpt lat="42.81539" lon="1.43788">
        <ele>1661.7763671875</ele>
        <time>2013-09-13T08:24:54Z</time>
      </trkpt>
      <trkpt lat="42.81553" lon="1.43794">
        <ele>1666.1020507812</ele>
        <time>2013-09-13T08:25:15Z</time>
      </trkpt>
      <trkpt lat="42.81564" lon="1.43783">
        <ele>1667.5439453125</ele>
        <time>2013-09-13T08:25:42Z</time>
      </trkpt>
      <trkpt lat="42.81584" lon="1.4378">
        <ele>1671.8698730469</ele>
        <time>2013-09-13T08:26:11Z</time>
      </trkpt>
      <trkpt lat="42.81597" lon="1.43773">
        <ele>1677.1574707031</ele>
        <time>2013-09-13T08:26:36Z</time>
      </trkpt>
      <trkpt lat="42.8161" lon="1.43772">
        <ele>1681.9638671875</ele>
        <time>2013-09-13T08:27:03Z</time>
      </trkpt>
      <trkpt lat="42.81619" lon="1.43776">
        <ele>1689.654296875</ele>
        <time>2013-09-13T08:27:53Z</time>
      </trkpt>
      <trkpt lat="42.81628" lon="1.43794">
        <ele>1692.5385742188</ele>
        <time>2013-09-13T08:28:25Z</time>
      </trkpt>
      <trkpt lat="42.81641" lon="1.43809">
        <ele>1696.8642578125</ele>
        <time>2013-09-13T08:28:56Z</time>
      </trkpt>
      <trkpt lat="42.81654" lon="1.438">
        <ele>1704.07421875</ele>
        <time>2013-09-13T08:29:34Z</time>
      </trkpt>
      <trkpt lat="42.81668" lon="1.43801">
        <ele>1711.7648925781</ele>
        <time>2013-09-13T08:30:11Z</time>
      </trkpt>
      <trkpt lat="42.81683" lon="1.43804">
        <ele>1714.16796875</ele>
        <time>2013-09-13T08:30:41Z</time>
      </trkpt>
      <trkpt lat="42.81703" lon="1.43807">
        <ele>1712.7260742188</ele>
        <time>2013-09-13T08:31:11Z</time>
      </trkpt>
      <trkpt lat="42.81716" lon="1.43824">
        <ele>1707.9194335938</ele>
        <time>2013-09-13T08:31:35Z</time>
      </trkpt>
      <trkpt lat="42.81734" lon="1.43824">
        <ele>1705.5161132812</ele>
        <time>2013-09-13T08:32:00Z</time>
      </trkpt>
      <trkpt lat="42.81751" lon="1.43835">
        <ele>1700.7094726562</ele>
        <time>2013-09-13T08:32:31Z</time>
      </trkpt>
      <trkpt lat="42.81764" lon="1.43836">
        <ele>1699.7482910156</ele>
        <time>2013-09-13T08:32:46Z</time>
      </trkpt>
      <trkpt lat="42.81778" lon="1.43827">
        <ele>1696.3837890625</ele>
        <time>2013-09-13T08:33:03Z</time>
      </trkpt>
      <trkpt lat="42.81789" lon="1.43817">
        <ele>1698.3061523438</ele>
        <time>2013-09-13T08:33:24Z</time>
      </trkpt>
      <trkpt lat="42.81801" lon="1.43809">
        <ele>1703.1127929688</ele>
        <time>2013-09-13T08:33:45Z</time>
      </trkpt>
      <trkpt lat="42.8182" lon="1.43806">
        <ele>1705.9965820312</ele>
        <time>2013-09-13T08:34:13Z</time>
      </trkpt>
      <trkpt lat="42.81843" lon="1.43816">
        <ele>1709.3615722656</ele>
        <time>2013-09-13T08:34:44Z</time>
      </trkpt>
      <trkpt lat="42.81859" lon="1.43817">
        <ele>1710.3227539062</ele>
        <time>2013-09-13T08:35:15Z</time>
      </trkpt>
      <trkpt lat="42.81869" lon="1.43814">
        <ele>1716.0905761719</ele>
        <time>2013-09-13T08:35:45Z</time>
      </trkpt>
      <trkpt lat="42.81883" lon="1.43808">
        <ele>1718.974609375</ele>
        <time>2013-09-13T08:36:11Z</time>
      </trkpt>
      <trkpt lat="42.81907" lon="1.43808">
        <ele>1721.3776855469</ele>
        <time>2013-09-13T08:36:58Z</time>
      </trkpt>
      <trkpt lat="42.81919" lon="1.43806">
        <ele>1719.9357910156</ele>
        <time>2013-09-13T08:37:25Z</time>
      </trkpt>
      <trkpt lat="42.81927" lon="1.43794">
        <ele>1720.4165039062</ele>
        <time>2013-09-13T08:37:54Z</time>
      </trkpt>
      <trkpt lat="42.81923" lon="1.4378">
        <ele>1719.9357910156</ele>
        <time>2013-09-13T08:38:40Z</time>
      </trkpt>
      <trkpt lat="42.81921" lon="1.43782">
        <ele>1720.8972167969</ele>
        <time>2013-09-13T08:42:03Z</time>
      </trkpt>
      <trkpt lat="42.81911" lon="1.43778">
        <ele>1721.3776855469</ele>
        <time>2013-09-13T08:42:22Z</time>
      </trkpt>
      <trkpt lat="42.81916" lon="1.43752">
        <ele>1720.4165039062</ele>
        <time>2013-09-13T08:42:53Z</time>
      </trkpt>
      <trkpt lat="42.81934" lon="1.43734">
        <ele>1725.7038574219</ele>
        <time>2013-09-13T08:43:34Z</time>
      </trkpt>
      <trkpt lat="42.81951" lon="1.43731">
        <ele>1725.2231445312</ele>
        <time>2013-09-13T08:43:59Z</time>
      </trkpt>
      <trkpt lat="42.81962" lon="1.4372">
        <ele>1724.2619628906</ele>
        <time>2013-09-13T08:44:20Z</time>
      </trkpt>
      <trkpt lat="42.81968" lon="1.43715">
        <ele>1725.2231445312</ele>
        <time>2013-09-13T08:44:47Z</time>
      </trkpt>
      <trkpt lat="42.81976" lon="1.43726">
        <ele>1722.8198242188</ele>
        <time>2013-09-13T08:45:24Z</time>
      </trkpt>
      <trkpt lat="42.8199" lon="1.43733">
        <ele>1722.8198242188</ele>
        <time>2013-09-13T08:45:40Z</time>
      </trkpt>
      <trkpt lat="42.8201" lon="1.43736">
        <ele>1722.8198242188</ele>
        <time>2013-09-13T08:46:03Z</time>
      </trkpt>
      <trkpt lat="42.82028" lon="1.43713">
        <ele>1723.3005371094</ele>
        <time>2013-09-13T08:46:30Z</time>
      </trkpt>
      <trkpt lat="42.82044" lon="1.43698">
        <ele>1725.2231445312</ele>
        <time>2013-09-13T08:46:58Z</time>
      </trkpt>
      <trkpt lat="42.82054" lon="1.43692">
        <ele>1725.7038574219</ele>
        <time>2013-09-13T08:48:15Z</time>
      </trkpt>
      <trkpt lat="42.82056" lon="1.43668">
        <ele>1724.2619628906</ele>
        <time>2013-09-13T08:49:58Z</time>
      </trkpt>
      <trkpt lat="42.82075" lon="1.43646">
        <ele>1723.3005371094</ele>
        <time>2013-09-13T08:50:28Z</time>
      </trkpt>
      <trkpt lat="42.82085" lon="1.43629">
        <ele>1723.3005371094</ele>
        <time>2013-09-13T08:50:53Z</time>
      </trkpt>
      <trkpt lat="42.82095" lon="1.43612">
        <ele>1722.3391113281</ele>
        <time>2013-09-13T08:51:15Z</time>
      </trkpt>
      <trkpt lat="42.82093" lon="1.43593">
        <ele>1722.8198242188</ele>
        <time>2013-09-13T08:51:33Z</time>
      </trkpt>
      <trkpt lat="42.82094" lon="1.43574">
        <ele>1728.1071777344</ele>
        <time>2013-09-13T08:51:54Z</time>
      </trkpt>
      <trkpt lat="42.8209" lon="1.43558">
        <ele>1729.068359375</ele>
        <time>2013-09-13T08:52:29Z</time>
      </trkpt>
      <trkpt lat="42.82093" lon="1.43538">
        <ele>1732.9135742188</ele>
        <time>2013-09-13T08:52:53Z</time>
      </trkpt>
      <trkpt lat="42.82095" lon="1.43518">
        <ele>1733.875</ele>
        <time>2013-09-13T08:53:11Z</time>
      </trkpt>
      <trkpt lat="42.82103" lon="1.43501">
        <ele>1736.2783203125</ele>
        <time>2013-09-13T08:53:43Z</time>
      </trkpt>
      <trkpt lat="42.82107" lon="1.43481">
        <ele>1742.0463867188</ele>
        <time>2013-09-13T08:54:23Z</time>
      </trkpt>
      <trkpt lat="42.82117" lon="1.43464">
        <ele>1744.9301757812</ele>
        <time>2013-09-13T08:54:52Z</time>
      </trkpt>
      <trkpt lat="42.82124" lon="1.43449">
        <ele>1746.3723144531</ele>
        <time>2013-09-13T08:55:21Z</time>
      </trkpt>
      <trkpt lat="42.82128" lon="1.43428">
        <ele>1746.3723144531</ele>
        <time>2013-09-13T08:55:47Z</time>
      </trkpt>
      <trkpt lat="42.82137" lon="1.43414">
        <ele>1749.7368164062</ele>
        <time>2013-09-13T08:56:28Z</time>
      </trkpt>
      <trkpt lat="42.8215" lon="1.43399">
        <ele>1758.8693847656</ele>
        <time>2013-09-13T08:57:18Z</time>
      </trkpt>
      <trkpt lat="42.82153" lon="1.43387">
        <ele>1766.5598144531</ele>
        <time>2013-09-13T08:58:19Z</time>
      </trkpt>
      <trkpt lat="42.8216" lon="1.43369">
        <ele>1773.7697753906</ele>
        <time>2013-09-13T08:59:07Z</time>
      </trkpt>
      <trkpt lat="42.82164" lon="1.43349">
        <ele>1780.0183105469</ele>
        <time>2013-09-13T09:00:14Z</time>
      </trkpt>
      <trkpt lat="42.82176" lon="1.43349">
        <ele>1786.7473144531</ele>
        <time>2013-09-13T09:01:15Z</time>
      </trkpt>
      <trkpt lat="42.82185" lon="1.43338">
        <ele>1792.99609375</ele>
        <time>2013-09-13T09:01:57Z</time>
      </trkpt>
      <trkpt lat="42.82202" lon="1.4334">
        <ele>1797.802734375</ele>
        <time>2013-09-13T09:04:25Z</time>
      </trkpt>
      <trkpt lat="42.82224" lon="1.43335">
        <ele>1802.6091308594</ele>
        <time>2013-09-13T09:05:24Z</time>
      </trkpt>
      <trkpt lat="42.82245" lon="1.43334">
        <ele>1805.0126953125</ele>
        <time>2013-09-13T09:05:51Z</time>
      </trkpt>
      <trkpt lat="42.82259" lon="1.4334">
        <ele>1806.9353027344</ele>
        <time>2013-09-13T09:06:46Z</time>
      </trkpt>
      <trkpt lat="42.82273" lon="1.43332">
        <ele>1810.2998046875</ele>
        <time>2013-09-13T09:07:10Z</time>
      </trkpt>
      <trkpt lat="42.82286" lon="1.43321">
        <ele>1816.5483398438</ele>
        <time>2013-09-13T09:07:48Z</time>
      </trkpt>
      <trkpt lat="42.82301" lon="1.43325">
        <ele>1819.9128417969</ele>
        <time>2013-09-13T09:08:26Z</time>
      </trkpt>
      <trkpt lat="42.82312" lon="1.43338">
        <ele>1824.2390136719</ele>
        <time>2013-09-13T09:08:57Z</time>
      </trkpt>
      <trkpt lat="42.82323" lon="1.43345">
        <ele>1830.0068359375</ele>
        <time>2013-09-13T09:09:35Z</time>
      </trkpt>
      <trkpt lat="42.82321" lon="1.4336">
        <ele>1837.6975097656</ele>
        <time>2013-09-13T09:10:33Z</time>
      </trkpt>
      <trkpt lat="42.82329" lon="1.43375">
        <ele>1844.4265136719</ele>
        <time>2013-09-13T09:11:10Z</time>
      </trkpt>
      <trkpt lat="42.82343" lon="1.43387">
        <ele>1851.6364746094</ele>
        <time>2013-09-13T09:12:01Z</time>
      </trkpt>
      <trkpt lat="42.82357" lon="1.434">
        <ele>1856.923828125</ele>
        <time>2013-09-13T09:12:54Z</time>
      </trkpt>
      <trkpt lat="42.82368" lon="1.43409">
        <ele>1863.1723632812</ele>
        <time>2013-09-13T09:13:33Z</time>
      </trkpt>
      <trkpt lat="42.82368" lon="1.4342">
        <ele>1867.017578125</ele>
        <time>2013-09-13T09:14:15Z</time>
      </trkpt>
      <trkpt lat="42.82378" lon="1.43429">
        <ele>1872.7856445312</ele>
        <time>2013-09-13T09:14:53Z</time>
      </trkpt>
      <trkpt lat="42.82389" lon="1.43443">
        <ele>1879.0339355469</ele>
        <time>2013-09-13T09:15:41Z</time>
      </trkpt>
      <trkpt lat="42.82398" lon="1.43451">
        <ele>1881.91796875</ele>
        <time>2013-09-13T09:16:20Z</time>
      </trkpt>
      <trkpt lat="42.82408" lon="1.43468">
        <ele>1879.9953613281</ele>
        <time>2013-09-13T09:16:51Z</time>
      </trkpt>
      <trkpt lat="42.82407" lon="1.43485">
        <ele>1880.9567871094</ele>
        <time>2013-09-13T09:17:24Z</time>
      </trkpt>
      <trkpt lat="42.82417" lon="1.43496">
        <ele>1883.3598632812</ele>
        <time>2013-09-13T09:18:09Z</time>
      </trkpt>
      <trkpt lat="42.82431" lon="1.43511">
        <ele>1884.8022460938</ele>
        <time>2013-09-13T09:19:25Z</time>
      </trkpt>
      <trkpt lat="42.82444" lon="1.43527">
        <ele>1892.0119628906</ele>
        <time>2013-09-13T09:20:36Z</time>
      </trkpt>
      <trkpt lat="42.82457" lon="1.43538">
        <ele>1897.2990722656</ele>
        <time>2013-09-13T09:21:04Z</time>
      </trkpt>
      <trkpt lat="42.82472" lon="1.43551">
        <ele>1902.1057128906</ele>
        <time>2013-09-13T09:21:35Z</time>
      </trkpt>
      <trkpt lat="42.82485" lon="1.43563">
        <ele>1907.3930664062</ele>
        <time>2013-09-13T09:22:11Z</time>
      </trkpt>
      <trkpt lat="42.825" lon="1.43572">
        <ele>1912.6801757812</ele>
        <time>2013-09-13T09:22:53Z</time>
      </trkpt>
      <trkpt lat="42.82512" lon="1.43573">
        <ele>1918.4482421875</ele>
        <time>2013-09-13T09:23:53Z</time>
      </trkpt>
      <trkpt lat="42.82527" lon="1.43584">
        <ele>1919.8901367188</ele>
        <time>2013-09-13T09:24:18Z</time>
      </trkpt>
      <trkpt lat="42.82542" lon="1.43592">
        <ele>1924.2160644531</ele>
        <time>2013-09-13T09:24:42Z</time>
      </trkpt>
      <trkpt lat="42.82558" lon="1.43593">
        <ele>1929.9838867188</ele>
        <time>2013-09-13T09:25:21Z</time>
      </trkpt>
      <trkpt lat="42.82572" lon="1.43598">
        <ele>1932.3874511719</ele>
        <time>2013-09-13T09:25:44Z</time>
      </trkpt>
      <trkpt lat="42.82593" lon="1.43587">
        <ele>1932.8679199219</ele>
        <time>2013-09-13T09:26:14Z</time>
      </trkpt>
      <trkpt lat="42.82609" lon="1.43586">
        <ele>1933.3486328125</ele>
        <time>2013-09-13T09:26:31Z</time>
      </trkpt>
      <trkpt lat="42.82627" lon="1.43581">
        <ele>1936.2326660156</ele>
        <time>2013-09-13T09:26:58Z</time>
      </trkpt>
      <trkpt lat="42.82644" lon="1.4356">
        <ele>1937.1938476562</ele>
        <time>2013-09-13T09:27:35Z</time>
      </trkpt>
      <trkpt lat="42.82658" lon="1.43552">
        <ele>1941.0390625</ele>
        <time>2013-09-13T09:27:58Z</time>
      </trkpt>
      <trkpt lat="42.82676" lon="1.4355">
        <ele>1945.845703125</ele>
        <time>2013-09-13T09:28:39Z</time>
      </trkpt>
      <trkpt lat="42.82676" lon="1.43533">
        <ele>1953.5363769531</ele>
        <time>2013-09-13T09:29:30Z</time>
      </trkpt>
      <trkpt lat="42.82684" lon="1.4351">
        <ele>1956.4201660156</ele>
        <time>2013-09-13T09:30:03Z</time>
      </trkpt>
      <trkpt lat="42.82694" lon="1.43496">
        <ele>1961.7075195312</ele>
        <time>2013-09-13T09:30:35Z</time>
      </trkpt>
      <trkpt lat="42.82708" lon="1.43493">
        <ele>1965.5529785156</ele>
        <time>2013-09-13T09:31:08Z</time>
      </trkpt>
      <trkpt lat="42.8272" lon="1.43477">
        <ele>1967.9560546875</ele>
        <time>2013-09-13T09:31:37Z</time>
      </trkpt>
      <trkpt lat="42.8274" lon="1.43486">
        <ele>1976.1271972656</ele>
        <time>2013-09-13T09:32:31Z</time>
      </trkpt>
      <trkpt lat="42.82752" lon="1.43474">
        <ele>1979.4916992188</ele>
        <time>2013-09-13T09:33:18Z</time>
      </trkpt>
      <trkpt lat="42.82749" lon="1.43477">
        <ele>1979.4916992188</ele>
        <time>2013-09-13T09:34:03Z</time>
      </trkpt>
      <trkpt lat="42.82747" lon="1.43489">
        <ele>1979.9724121094</ele>
        <time>2013-09-13T09:34:23Z</time>
      </trkpt>
      <trkpt lat="42.82762" lon="1.4348">
        <ele>1980.9340820312</ele>
        <time>2013-09-13T09:34:48Z</time>
      </trkpt>
      <trkpt lat="42.82777" lon="1.43481">
        <ele>1986.2211914062</ele>
        <time>2013-09-13T09:35:29Z</time>
      </trkpt>
      <trkpt lat="42.8279" lon="1.43472">
        <ele>1987.1823730469</ele>
        <time>2013-09-13T09:35:56Z</time>
      </trkpt>
      <trkpt lat="42.82791" lon="1.43449">
        <ele>1990.546875</ele>
        <time>2013-09-13T09:36:20Z</time>
      </trkpt>
      <trkpt lat="42.82804" lon="1.43436">
        <ele>1992.4697265625</ele>
        <time>2013-09-13T09:36:47Z</time>
      </trkpt>
      <trkpt lat="42.82817" lon="1.4344">
        <ele>1993.9116210938</ele>
        <time>2013-09-13T09:37:07Z</time>
      </trkpt>
      <trkpt lat="42.82831" lon="1.43439">
        <ele>1994.3920898438</ele>
        <time>2013-09-13T09:37:25Z</time>
      </trkpt>
      <trkpt lat="42.82847" lon="1.43436">
        <ele>1993.9116210938</ele>
        <time>2013-09-13T09:37:49Z</time>
      </trkpt>
      <trkpt lat="42.82876" lon="1.43443">
        <ele>1993.9116210938</ele>
        <time>2013-09-13T09:38:22Z</time>
      </trkpt>
      <trkpt lat="42.82857" lon="1.43427">
        <ele>1993.9116210938</ele>
        <time>2013-09-13T09:38:40Z</time>
      </trkpt>
      <trkpt lat="42.82847" lon="1.434">
        <ele>1994.3920898438</ele>
        <time>2013-09-13T09:39:25Z</time>
      </trkpt>
      <trkpt lat="42.82866" lon="1.43403">
        <ele>1994.3920898438</ele>
        <time>2013-09-13T09:39:48Z</time>
      </trkpt>
      <trkpt lat="42.82883" lon="1.43405">
        <ele>2001.1215820312</ele>
        <time>2013-09-13T09:41:43Z</time>
      </trkpt>
      <trkpt lat="42.82888" lon="1.43386">
        <ele>2010.7346191406</ele>
        <time>2013-09-13T09:42:49Z</time>
      </trkpt>
      <trkpt lat="42.82901" lon="1.43397">
        <ele>2018.9060058594</ele>
        <time>2013-09-13T09:43:51Z</time>
      </trkpt>
      <trkpt lat="42.82912" lon="1.43406">
        <ele>2028.0385742188</ele>
        <time>2013-09-13T09:44:37Z</time>
      </trkpt>
      <trkpt lat="42.82928" lon="1.43408">
        <ele>2032.3645019531</ele>
        <time>2013-09-13T09:45:16Z</time>
      </trkpt>
      <trkpt lat="42.82933" lon="1.43424">
        <ele>2034.287109375</ele>
        <time>2013-09-13T09:46:16Z</time>
      </trkpt>
      <trkpt lat="42.82944" lon="1.43436">
        <ele>2034.287109375</ele>
        <time>2013-09-13T09:46:34Z</time>
      </trkpt>
      <trkpt lat="42.82943" lon="1.43449">
        <ele>2036.2097167969</ele>
        <time>2013-09-13T09:47:09Z</time>
      </trkpt>
      <trkpt lat="42.82953" lon="1.43464">
        <ele>2041.4968261719</ele>
        <time>2013-09-13T09:47:47Z</time>
      </trkpt>
      <trkpt lat="42.82963" lon="1.43483">
        <ele>2049.6682128906</ele>
        <time>2013-09-13T09:48:36Z</time>
      </trkpt>
      <trkpt lat="42.82968" lon="1.43512">
        <ele>2067.4523925781</ele>
        <time>2013-09-13T09:50:31Z</time>
      </trkpt>
      <trkpt lat="42.82952" lon="1.43531">
        <ele>2069.3752441406</ele>
        <time>2013-09-13T09:50:55Z</time>
      </trkpt>
      <trkpt lat="42.82961" lon="1.4356">
        <ele>2084.2756347656</ele>
        <time>2013-09-13T09:52:19Z</time>
      </trkpt>
      <trkpt lat="42.82949" lon="1.43575">
        <ele>2086.6787109375</ele>
        <time>2013-09-13T09:53:00Z</time>
      </trkpt>
      <trkpt lat="42.82947" lon="1.43599">
        <ele>2091.4853515625</ele>
        <time>2013-09-13T09:53:38Z</time>
      </trkpt>
      <trkpt lat="42.82951" lon="1.43602">
        <ele>2100.1374511719</ele>
        <time>2013-09-13T09:54:24Z</time>
      </trkpt>
      <trkpt lat="42.82965" lon="1.43597">
        <ele>2106.8664550781</ele>
        <time>2013-09-13T09:55:28Z</time>
      </trkpt>
      <trkpt lat="42.82965" lon="1.4361">
        <ele>2110.2312011719</ele>
        <time>2013-09-13T09:56:02Z</time>
      </trkpt>
      <trkpt lat="42.82969" lon="1.43632">
        <ele>2116.4797363281</ele>
        <time>2013-09-13T09:57:01Z</time>
      </trkpt>
      <trkpt lat="42.82971" lon="1.43646">
        <ele>2123.208984375</ele>
        <time>2013-09-13T09:58:00Z</time>
      </trkpt>
      <trkpt lat="42.82969" lon="1.43663">
        <ele>2130.8996582031</ele>
        <time>2013-09-13T10:00:41Z</time>
      </trkpt>
      <trkpt lat="42.82969" lon="1.43681">
        <ele>2135.2253417969</ele>
        <time>2013-09-13T10:01:10Z</time>
      </trkpt>
      <trkpt lat="42.82969" lon="1.43707">
        <ele>2139.0705566406</ele>
        <time>2013-09-13T10:02:22Z</time>
      </trkpt>
      <trkpt lat="42.82965" lon="1.43722">
        <ele>2137.6286621094</ele>
        <time>2013-09-13T10:02:51Z</time>
      </trkpt>
      <trkpt lat="42.82964" lon="1.43747">
        <ele>2141.9548339844</ele>
        <time>2013-09-13T10:03:31Z</time>
      </trkpt>
      <trkpt lat="42.82965" lon="1.43765">
        <ele>2148.203125</ele>
        <time>2013-09-13T10:04:09Z</time>
      </trkpt>
      <trkpt lat="42.82971" lon="1.43785">
        <ele>2151.5678710938</ele>
        <time>2013-09-13T10:04:54Z</time>
      </trkpt>
      <trkpt lat="42.8298" lon="1.43798">
        <ele>2156.8552246094</ele>
        <time>2013-09-13T10:05:37Z</time>
      </trkpt>
      <trkpt lat="42.82989" lon="1.43819">
        <ele>2162.623046875</ele>
        <time>2013-09-13T10:06:36Z</time>
      </trkpt>
      <trkpt lat="42.82995" lon="1.43842">
        <ele>2166.4682617188</ele>
        <time>2013-09-13T10:07:08Z</time>
      </trkpt>
      <trkpt lat="42.83" lon="1.43865">
        <ele>2169.8327636719</ele>
        <time>2013-09-13T10:07:38Z</time>
      </trkpt>
      <trkpt lat="42.83005" lon="1.4388">
        <ele>2176.0815429688</ele>
        <time>2013-09-13T10:08:06Z</time>
      </trkpt>
      <trkpt lat="42.83008" lon="1.439">
        <ele>2181.8493652344</ele>
        <time>2013-09-13T10:08:44Z</time>
      </trkpt>
      <trkpt lat="42.83017" lon="1.43925">
        <ele>2182.330078125</ele>
        <time>2013-09-13T10:09:16Z</time>
      </trkpt>
      <trkpt lat="42.83027" lon="1.43944">
        <ele>2182.810546875</ele>
        <time>2013-09-13T10:09:44Z</time>
      </trkpt>
      <trkpt lat="42.83056" lon="1.44016">
        <ele>2195.7885742188</ele>
        <time>2013-09-13T10:12:21Z</time>
      </trkpt>
      <trkpt lat="42.83026" lon="1.43946">
        <ele>2187.6171875</ele>
        <time>2013-09-13T12:00:39Z</time>
      </trkpt>
      <trkpt lat="42.83017" lon="1.43931">
        <ele>2186.6557617188</ele>
        <time>2013-09-13T12:00:53Z</time>
      </trkpt>
      <trkpt lat="42.83007" lon="1.43908">
        <ele>2187.1364746094</ele>
        <time>2013-09-13T12:01:28Z</time>
      </trkpt>
      <trkpt lat="42.83008" lon="1.43891">
        <ele>2185.6945800781</ele>
        <time>2013-09-13T12:02:08Z</time>
      </trkpt>
      <trkpt lat="42.82995" lon="1.43869">
        <ele>2175.6008300781</ele>
        <time>2013-09-13T12:02:50Z</time>
      </trkpt>
      <trkpt lat="42.82997" lon="1.4385">
        <ele>2172.236328125</ele>
        <time>2013-09-13T12:03:03Z</time>
      </trkpt>
      <trkpt lat="42.82989" lon="1.43832">
        <ele>2170.7941894531</ele>
        <time>2013-09-13T12:03:22Z</time>
      </trkpt>
      <trkpt lat="42.82981" lon="1.43805">
        <ele>2167.4294433594</ele>
        <time>2013-09-13T12:03:46Z</time>
      </trkpt>
      <trkpt lat="42.82977" lon="1.43789">
        <ele>2159.7390136719</ele>
        <time>2013-09-13T12:04:23Z</time>
      </trkpt>
      <trkpt lat="42.82968" lon="1.43767">
        <ele>2154.4516601562</ele>
        <time>2013-09-13T12:04:56Z</time>
      </trkpt>
      <trkpt lat="42.82959" lon="1.43745">
        <ele>2147.2419433594</ele>
        <time>2013-09-13T12:05:42Z</time>
      </trkpt>
      <trkpt lat="42.82963" lon="1.43731">
        <ele>2142.435546875</ele>
        <time>2013-09-13T12:06:15Z</time>
      </trkpt>
      <trkpt lat="42.82964" lon="1.43699">
        <ele>2141.9548339844</ele>
        <time>2013-09-13T12:06:49Z</time>
      </trkpt>
      <trkpt lat="42.82968" lon="1.43681">
        <ele>2141.4741210938</ele>
        <time>2013-09-13T12:07:07Z</time>
      </trkpt>
      <trkpt lat="42.82967" lon="1.43658">
        <ele>2138.5900878906</ele>
        <time>2013-09-13T12:07:38Z</time>
      </trkpt>
      <trkpt lat="42.82969" lon="1.43634">
        <ele>2129.9382324219</ele>
        <time>2013-09-13T12:08:16Z</time>
      </trkpt>
      <trkpt lat="42.82962" lon="1.43602">
        <ele>2118.8830566406</ele>
        <time>2013-09-13T12:09:08Z</time>
      </trkpt>
      <trkpt lat="42.82952" lon="1.43602">
        <ele>2109.2700195312</ele>
        <time>2013-09-13T12:09:53Z</time>
      </trkpt>
      <trkpt lat="42.82943" lon="1.43593">
        <ele>2099.1760253906</ele>
        <time>2013-09-13T12:10:47Z</time>
      </trkpt>
      <trkpt lat="42.82946" lon="1.43571">
        <ele>2095.3308105469</ele>
        <time>2013-09-13T12:11:06Z</time>
      </trkpt>
      <trkpt lat="42.82955" lon="1.43554">
        <ele>2091.9660644531</ele>
        <time>2013-09-13T12:11:39Z</time>
      </trkpt>
      <trkpt lat="42.8295" lon="1.43534">
        <ele>2082.8334960938</ele>
        <time>2013-09-13T12:12:32Z</time>
      </trkpt>
      <trkpt lat="42.82963" lon="1.43513">
        <ele>2078.98828125</ele>
        <time>2013-09-13T12:12:49Z</time>
      </trkpt>
      <trkpt lat="42.82961" lon="1.43491">
        <ele>2074.181640625</ele>
        <time>2013-09-13T12:13:19Z</time>
      </trkpt>
      <trkpt lat="42.82957" lon="1.43478">
        <ele>2061.6848144531</ele>
        <time>2013-09-13T12:14:37Z</time>
      </trkpt>
      <trkpt lat="42.82948" lon="1.43458">
        <ele>2054.9553222656</ele>
        <time>2013-09-13T12:15:23Z</time>
      </trkpt>
      <trkpt lat="42.82942" lon="1.43446">
        <ele>2049.6682128906</ele>
        <time>2013-09-13T12:15:57Z</time>
      </trkpt>
      <trkpt lat="42.82932" lon="1.43422">
        <ele>2047.7456054688</ele>
        <time>2013-09-13T12:16:18Z</time>
      </trkpt>
      <trkpt lat="42.82924" lon="1.43394">
        <ele>2045.8229980469</ele>
        <time>2013-09-13T12:16:44Z</time>
      </trkpt>
      <trkpt lat="42.8293" lon="1.43377">
        <ele>2046.7841796875</ele>
        <time>2013-09-13T12:17:04Z</time>
      </trkpt>
      <trkpt lat="42.82916" lon="1.43352">
        <ele>2049.1875</ele>
        <time>2013-09-13T12:17:38Z</time>
      </trkpt>
      <trkpt lat="42.82908" lon="1.43334">
        <ele>2053.0327148438</ele>
        <time>2013-09-13T12:18:09Z</time>
      </trkpt>
      <trkpt lat="42.82905" lon="1.43316">
        <ele>2054.9553222656</ele>
        <time>2013-09-13T12:18:22Z</time>
      </trkpt>
      <trkpt lat="42.82898" lon="1.43294">
        <ele>2055.4360351562</ele>
        <time>2013-09-13T12:18:43Z</time>
      </trkpt>
      <trkpt lat="42.82889" lon="1.43268">
        <ele>2055.4360351562</ele>
        <time>2013-09-13T12:19:05Z</time>
      </trkpt>
      <trkpt lat="42.82891" lon="1.43242">
        <ele>2060.7233886719</ele>
        <time>2013-09-13T12:19:40Z</time>
      </trkpt>
      <trkpt lat="42.82889" lon="1.43215">
        <ele>2057.3586425781</ele>
        <time>2013-09-13T12:20:07Z</time>
      </trkpt>
      <trkpt lat="42.82892" lon="1.43194">
        <ele>2059.28125</ele>
        <time>2013-09-13T12:20:32Z</time>
      </trkpt>
      <trkpt lat="42.82895" lon="1.43167">
        <ele>2059.28125</ele>
        <time>2013-09-13T12:21:02Z</time>
      </trkpt>
      <trkpt lat="42.8289" lon="1.43147">
        <ele>2053.5134277344</ele>
        <time>2013-09-13T12:21:26Z</time>
      </trkpt>
      <trkpt lat="42.82879" lon="1.43123">
        <ele>2052.0712890625</ele>
        <time>2013-09-13T12:21:50Z</time>
      </trkpt>
      <trkpt lat="42.82873" lon="1.43105">
        <ele>2049.1875</ele>
        <time>2013-09-13T12:22:10Z</time>
      </trkpt>
      <trkpt lat="42.82865" lon="1.43089">
        <ele>2045.3422851562</ele>
        <time>2013-09-13T12:22:27Z</time>
      </trkpt>
      <trkpt lat="42.82853" lon="1.43061">
        <ele>2040.0549316406</ele>
        <time>2013-09-13T12:22:56Z</time>
      </trkpt>
      <trkpt lat="42.82855" lon="1.43052">
        <ele>2037.1708984375</ele>
        <time>2013-09-13T12:23:42Z</time>
      </trkpt>
      <trkpt lat="42.82848" lon="1.43027">
        <ele>2029.9611816406</ele>
        <time>2013-09-13T12:24:07Z</time>
      </trkpt>
      <trkpt lat="42.82837" lon="1.43014">
        <ele>2031.4030761719</ele>
        <time>2013-09-13T12:24:23Z</time>
      </trkpt>
      <trkpt lat="42.82828" lon="1.42994">
        <ele>2032.3645019531</ele>
        <time>2013-09-13T12:24:38Z</time>
      </trkpt>
      <trkpt lat="42.82814" lon="1.42973">
        <ele>2033.3256835938</ele>
        <time>2013-09-13T12:25:10Z</time>
      </trkpt>
      <trkpt lat="42.82809" lon="1.42967">
        <ele>2036.6901855469</ele>
        <time>2013-09-13T12:25:40Z</time>
      </trkpt>
      <trkpt lat="42.82795" lon="1.42953">
        <ele>2040.0549316406</ele>
        <time>2013-09-13T12:26:04Z</time>
      </trkpt>
      <trkpt lat="42.82781" lon="1.42935">
        <ele>2043.9001464844</ele>
        <time>2013-09-13T12:26:32Z</time>
      </trkpt>
      <trkpt lat="42.8276" lon="1.42919">
        <ele>2045.3422851562</ele>
        <time>2013-09-13T12:27:03Z</time>
      </trkpt>
      <trkpt lat="42.82753" lon="1.42903">
        <ele>2043.9001464844</ele>
        <time>2013-09-13T12:27:30Z</time>
      </trkpt>
      <trkpt lat="42.82741" lon="1.4288">
        <ele>2043.9001464844</ele>
        <time>2013-09-13T12:27:50Z</time>
      </trkpt>
      <trkpt lat="42.82724" lon="1.4286">
        <ele>2041.0161132812</ele>
        <time>2013-09-13T12:28:20Z</time>
      </trkpt>
      <trkpt lat="42.82722" lon="1.42853">
        <ele>2038.6130371094</ele>
        <time>2013-09-13T12:32:02Z</time>
      </trkpt>
      <trkpt lat="42.82712" lon="1.42827">
        <ele>2035.7290039062</ele>
        <time>2013-09-13T12:32:25Z</time>
      </trkpt>
      <trkpt lat="42.827" lon="1.42797">
        <ele>2035.2482910156</ele>
        <time>2013-09-13T12:32:44Z</time>
      </trkpt>
      <trkpt lat="42.82694" lon="1.42763">
        <ele>2036.6901855469</ele>
        <time>2013-09-13T12:33:04Z</time>
      </trkpt>
      <trkpt lat="42.82692" lon="1.42731">
        <ele>2036.6901855469</ele>
        <time>2013-09-13T12:33:21Z</time>
      </trkpt>
      <trkpt lat="42.82688" lon="1.42702">
        <ele>2038.1323242188</ele>
        <time>2013-09-13T12:33:40Z</time>
      </trkpt>
      <trkpt lat="42.82679" lon="1.42669">
        <ele>2038.6130371094</ele>
        <time>2013-09-13T12:34:00Z</time>
      </trkpt>
      <trkpt lat="42.82662" lon="1.42631">
        <ele>2039.57421875</ele>
        <time>2013-09-13T12:34:28Z</time>
      </trkpt>
      <trkpt lat="42.82645" lon="1.42592">
        <ele>2037.1708984375</ele>
        <time>2013-09-13T12:35:03Z</time>
      </trkpt>
      <trkpt lat="42.82631" lon="1.42567">
        <ele>2036.6901855469</ele>
        <time>2013-09-13T12:35:21Z</time>
      </trkpt>
      <trkpt lat="42.82619" lon="1.42541">
        <ele>2038.1323242188</ele>
        <time>2013-09-13T12:35:51Z</time>
      </trkpt>
      <trkpt lat="42.82605" lon="1.42515">
        <ele>2037.6516113281</ele>
        <time>2013-09-13T12:36:18Z</time>
      </trkpt>
      <trkpt lat="42.82594" lon="1.42492">
        <ele>2034.7678222656</ele>
        <time>2013-09-13T12:36:46Z</time>
      </trkpt>
      <trkpt lat="42.82582" lon="1.42463">
        <ele>2033.3256835938</ele>
        <time>2013-09-13T12:37:29Z</time>
      </trkpt>
      <trkpt lat="42.82582" lon="1.42437">
        <ele>2036.6901855469</ele>
        <time>2013-09-13T12:37:54Z</time>
      </trkpt>
      <trkpt lat="42.82577" lon="1.42418">
        <ele>2036.6901855469</ele>
        <time>2013-09-13T12:38:12Z</time>
      </trkpt>
      <trkpt lat="42.82579" lon="1.42397">
        <ele>2045.3422851562</ele>
        <time>2013-09-13T12:38:43Z</time>
      </trkpt>
      <trkpt lat="42.82574" lon="1.42377">
        <ele>2041.0161132812</ele>
        <time>2013-09-13T12:38:59Z</time>
      </trkpt>
      <trkpt lat="42.82561" lon="1.4234">
        <ele>2034.287109375</ele>
        <time>2013-09-13T12:39:30Z</time>
      </trkpt>
      <trkpt lat="42.82553" lon="1.42316">
        <ele>2031.8837890625</ele>
        <time>2013-09-13T12:39:51Z</time>
      </trkpt>
      <trkpt lat="42.82544" lon="1.4229">
        <ele>2028.0385742188</ele>
        <time>2013-09-13T12:40:09Z</time>
      </trkpt>
      <trkpt lat="42.82529" lon="1.42262">
        <ele>2023.7124023438</ele>
        <time>2013-09-13T12:40:37Z</time>
      </trkpt>
      <trkpt lat="42.82519" lon="1.42241">
        <ele>2020.8286132812</ele>
        <time>2013-09-13T12:40:52Z</time>
      </trkpt>
      <trkpt lat="42.82514" lon="1.42223">
        <ele>2017.9445800781</ele>
        <time>2013-09-13T12:41:05Z</time>
      </trkpt>
      <trkpt lat="42.82507" lon="1.42206">
        <ele>2013.6186523438</ele>
        <time>2013-09-13T12:41:17Z</time>
      </trkpt>
      <trkpt lat="42.82494" lon="1.42172">
        <ele>2012.1767578125</ele>
        <time>2013-09-13T12:41:39Z</time>
      </trkpt>
      <trkpt lat="42.82485" lon="1.42137">
        <ele>2008.8120117188</ele>
        <time>2013-09-13T12:42:03Z</time>
      </trkpt>
      <trkpt lat="42.82474" lon="1.42119">
        <ele>2003.5249023438</ele>
        <time>2013-09-13T12:42:19Z</time>
      </trkpt>
      <trkpt lat="42.82464" lon="1.421">
        <ele>2002.0827636719</ele>
        <time>2013-09-13T12:42:34Z</time>
      </trkpt>
      <trkpt lat="42.82447" lon="1.42076">
        <ele>1995.353515625</ele>
        <time>2013-09-13T12:42:57Z</time>
      </trkpt>
      <trkpt lat="42.82437" lon="1.42058">
        <ele>1991.5083007812</ele>
        <time>2013-09-13T12:43:11Z</time>
      </trkpt>
      <trkpt lat="42.82429" lon="1.42041">
        <ele>1986.2211914062</ele>
        <time>2013-09-13T12:43:24Z</time>
      </trkpt>
      <trkpt lat="42.82407" lon="1.42017">
        <ele>1981.8952636719</ele>
        <time>2013-09-13T12:43:48Z</time>
      </trkpt>
      <trkpt lat="42.82384" lon="1.41986">
        <ele>1976.1271972656</ele>
        <time>2013-09-13T12:44:15Z</time>
      </trkpt>
      <trkpt lat="42.82369" lon="1.41974">
        <ele>1974.6853027344</ele>
        <time>2013-09-13T12:44:29Z</time>
      </trkpt>
      <trkpt lat="42.82347" lon="1.41963">
        <ele>1974.6853027344</ele>
        <time>2013-09-13T12:44:57Z</time>
      </trkpt>
      <trkpt lat="42.82318" lon="1.41951">
        <ele>1971.3205566406</ele>
        <time>2013-09-13T12:45:18Z</time>
      </trkpt>
      <trkpt lat="42.82297" lon="1.41941">
        <ele>1967.4753417969</ele>
        <time>2013-09-13T12:45:38Z</time>
      </trkpt>
      <trkpt lat="42.82264" lon="1.41929">
        <ele>1967.4753417969</ele>
        <time>2013-09-13T12:46:08Z</time>
      </trkpt>
      <trkpt lat="42.8225" lon="1.41925">
        <ele>1967.9560546875</ele>
        <time>2013-09-13T12:46:44Z</time>
      </trkpt>
      <trkpt lat="42.82235" lon="1.41913">
        <ele>1967.9560546875</ele>
        <time>2013-09-13T12:46:59Z</time>
      </trkpt>
      <trkpt lat="42.82218" lon="1.41901">
        <ele>1973.2434082031</ele>
        <time>2013-09-13T12:47:50Z</time>
      </trkpt>
      <trkpt lat="42.822" lon="1.41888">
        <ele>1978.5305175781</ele>
        <time>2013-09-13T12:48:22Z</time>
      </trkpt>
      <trkpt lat="42.82187" lon="1.41871">
        <ele>1983.8178710938</ele>
        <time>2013-09-13T12:48:45Z</time>
      </trkpt>
      <trkpt lat="42.82171" lon="1.41851">
        <ele>1990.06640625</ele>
        <time>2013-09-13T12:49:13Z</time>
      </trkpt>
      <trkpt lat="42.82156" lon="1.41835">
        <ele>1994.8728027344</ele>
        <time>2013-09-13T12:49:45Z</time>
      </trkpt>
      <trkpt lat="42.82142" lon="1.41826">
        <ele>1998.7182617188</ele>
        <time>2013-09-13T12:50:17Z</time>
      </trkpt>
      <trkpt lat="42.8213" lon="1.41809">
        <ele>2003.0441894531</ele>
        <time>2013-09-13T12:50:41Z</time>
      </trkpt>
      <trkpt lat="42.82113" lon="1.41792">
        <ele>2008.8120117188</ele>
        <time>2013-09-13T12:51:10Z</time>
      </trkpt>
      <trkpt lat="42.821" lon="1.41777">
        <ele>2011.2153320312</ele>
        <time>2013-09-13T12:51:33Z</time>
      </trkpt>
      <trkpt lat="42.82089" lon="1.4176">
        <ele>2008.8120117188</ele>
        <time>2013-09-13T12:52:01Z</time>
      </trkpt>
      <trkpt lat="42.82073" lon="1.41746">
        <ele>2005.9279785156</ele>
        <time>2013-09-13T12:52:18Z</time>
      </trkpt>
      <trkpt lat="42.82059" lon="1.41737">
        <ele>2003.0441894531</ele>
        <time>2013-09-13T12:52:32Z</time>
      </trkpt>
      <trkpt lat="42.8204" lon="1.41724">
        <ele>2002.0827636719</ele>
        <time>2013-09-13T12:52:51Z</time>
      </trkpt>
      <trkpt lat="42.82023" lon="1.41702">
        <ele>2003.0441894531</ele>
        <time>2013-09-13T12:53:27Z</time>
      </trkpt>
      <trkpt lat="42.82015" lon="1.41687">
        <ele>2001.1215820312</ele>
        <time>2013-09-13T12:53:58Z</time>
      </trkpt>
      <trkpt lat="42.82004" lon="1.41674">
        <ele>1994.8728027344</ele>
        <time>2013-09-13T12:54:22Z</time>
      </trkpt>
      <trkpt lat="42.82004" lon="1.41653">
        <ele>1983.8178710938</ele>
        <time>2013-09-13T12:54:47Z</time>
      </trkpt>
      <trkpt lat="42.81989" lon="1.41633">
        <ele>1980.4533691406</ele>
        <time>2013-09-13T12:55:11Z</time>
      </trkpt>
      <trkpt lat="42.81971" lon="1.4162">
        <ele>1973.7238769531</ele>
        <time>2013-09-13T12:55:37Z</time>
      </trkpt>
      <trkpt lat="42.81961" lon="1.41606">
        <ele>1969.3981933594</ele>
        <time>2013-09-13T12:55:58Z</time>
      </trkpt>
      <trkpt lat="42.81956" lon="1.41588">
        <ele>1966.0334472656</ele>
        <time>2013-09-13T12:56:18Z</time>
      </trkpt>
      <trkpt lat="42.81943" lon="1.41592">
        <ele>1958.8234863281</ele>
        <time>2013-09-13T12:56:57Z</time>
      </trkpt>
      <trkpt lat="42.81926" lon="1.4158">
        <ele>1955.939453125</ele>
        <time>2013-09-13T12:57:24Z</time>
      </trkpt>
      <trkpt lat="42.81914" lon="1.41571">
        <ele>1958.8234863281</ele>
        <time>2013-09-13T12:57:46Z</time>
      </trkpt>
      <trkpt lat="42.81889" lon="1.41554">
        <ele>1964.5915527344</ele>
        <time>2013-09-13T12:58:17Z</time>
      </trkpt>
      <trkpt lat="42.81869" lon="1.41545">
        <ele>1969.3981933594</ele>
        <time>2013-09-13T12:58:59Z</time>
      </trkpt>
      <trkpt lat="42.81852" lon="1.41543">
        <ele>1968.4367675781</ele>
        <time>2013-09-13T12:59:14Z</time>
      </trkpt>
      <trkpt lat="42.8184" lon="1.41533">
        <ele>1969.3981933594</ele>
        <time>2013-09-13T12:59:30Z</time>
      </trkpt>
      <trkpt lat="42.81822" lon="1.4152">
        <ele>1968.9174804688</ele>
        <time>2013-09-13T12:59:56Z</time>
      </trkpt>
      <trkpt lat="42.81804" lon="1.41512">
        <ele>1967.4753417969</ele>
        <time>2013-09-13T13:00:18Z</time>
      </trkpt>
      <trkpt lat="42.81787" lon="1.41507">
        <ele>1966.5141601562</ele>
        <time>2013-09-13T13:00:37Z</time>
      </trkpt>
      <trkpt lat="42.81772" lon="1.41511">
        <ele>1960.74609375</ele>
        <time>2013-09-13T13:00:57Z</time>
      </trkpt>
      <trkpt lat="42.81755" lon="1.41516">
        <ele>1956.9008789062</ele>
        <time>2013-09-13T13:01:11Z</time>
      </trkpt>
      <trkpt lat="42.81742" lon="1.41523">
        <ele>1955.458984375</ele>
        <time>2013-09-13T13:01:26Z</time>
      </trkpt>
      <trkpt lat="42.81724" lon="1.41533">
        <ele>1953.5363769531</ele>
        <time>2013-09-13T13:01:42Z</time>
      </trkpt>
      <trkpt lat="42.81709" lon="1.41545">
        <ele>1954.4975585938</ele>
        <time>2013-09-13T13:02:02Z</time>
      </trkpt>
      <trkpt lat="42.81697" lon="1.41558">
        <ele>1956.4201660156</ele>
        <time>2013-09-13T13:02:15Z</time>
      </trkpt>
      <trkpt lat="42.81687" lon="1.41571">
        <ele>1956.9008789062</ele>
        <time>2013-09-13T13:02:28Z</time>
      </trkpt>
      <trkpt lat="42.81666" lon="1.41594">
        <ele>1954.9782714844</ele>
        <time>2013-09-13T13:02:55Z</time>
      </trkpt>
      <trkpt lat="42.81651" lon="1.41593">
        <ele>1948.7297363281</ele>
        <time>2013-09-13T13:03:23Z</time>
      </trkpt>
      <trkpt lat="42.81636" lon="1.41596">
        <ele>1947.2875976562</ele>
        <time>2013-09-13T13:03:39Z</time>
      </trkpt>
      <trkpt lat="42.81616" lon="1.41608">
        <ele>1937.6745605469</ele>
        <time>2013-09-13T13:04:11Z</time>
      </trkpt>
      <trkpt lat="42.81607" lon="1.41625">
        <ele>1932.3874511719</ele>
        <time>2013-09-13T13:04:30Z</time>
      </trkpt>
      <trkpt lat="42.81597" lon="1.41616">
        <ele>1926.138671875</ele>
        <time>2013-09-13T13:05:02Z</time>
      </trkpt>
      <trkpt lat="42.81587" lon="1.41599">
        <ele>1919.4096679688</ele>
        <time>2013-09-13T13:05:22Z</time>
      </trkpt>
      <trkpt lat="42.8158" lon="1.4157">
        <ele>1911.23828125</ele>
        <time>2013-09-13T13:05:49Z</time>
      </trkpt>
      <trkpt lat="42.81569" lon="1.41571">
        <ele>1901.14453125</ele>
        <time>2013-09-13T13:06:20Z</time>
      </trkpt>
      <trkpt lat="42.8155" lon="1.41571">
        <ele>1892.9731445312</ele>
        <time>2013-09-13T13:06:49Z</time>
      </trkpt>
      <trkpt lat="42.81535" lon="1.41575">
        <ele>1886.244140625</ele>
        <time>2013-09-13T13:07:22Z</time>
      </trkpt>
      <trkpt lat="42.81524" lon="1.41565">
        <ele>1879.0339355469</ele>
        <time>2013-09-13T13:07:55Z</time>
      </trkpt>
      <trkpt lat="42.81514" lon="1.41547">
        <ele>1871.82421875</ele>
        <time>2013-09-13T13:08:12Z</time>
      </trkpt>
      <trkpt lat="42.81502" lon="1.4154">
        <ele>1864.1335449219</ele>
        <time>2013-09-13T13:08:37Z</time>
      </trkpt>
      <trkpt lat="42.81493" lon="1.41521">
        <ele>1857.8852539062</ele>
        <time>2013-09-13T13:08:54Z</time>
      </trkpt>
      <trkpt lat="42.81484" lon="1.41507">
        <ele>1853.0786132812</ele>
        <time>2013-09-13T13:09:05Z</time>
      </trkpt>
      <trkpt lat="42.81469" lon="1.41483">
        <ele>1844.9072265625</ele>
        <time>2013-09-13T13:09:40Z</time>
      </trkpt>
      <trkpt lat="42.81459" lon="1.41468">
        <ele>1840.5812988281</ele>
        <time>2013-09-13T13:09:53Z</time>
      </trkpt>
      <trkpt lat="42.8145" lon="1.41451">
        <ele>1836.2556152344</ele>
        <time>2013-09-13T13:10:08Z</time>
      </trkpt>
      <trkpt lat="42.81441" lon="1.41432">
        <ele>1829.0454101562</ele>
        <time>2013-09-13T13:10:26Z</time>
      </trkpt>
      <trkpt lat="42.81425" lon="1.41428">
        <ele>1820.8745117188</ele>
        <time>2013-09-13T13:10:47Z</time>
      </trkpt>
      <trkpt lat="42.81411" lon="1.41424">
        <ele>1816.0676269531</ele>
        <time>2013-09-13T13:11:05Z</time>
      </trkpt>
      <trkpt lat="42.81397" lon="1.41421">
        <ele>1809.8190917969</ele>
        <time>2013-09-13T13:11:23Z</time>
      </trkpt>
      <trkpt lat="42.81383" lon="1.41412">
        <ele>1804.5319824219</ele>
        <time>2013-09-13T13:11:40Z</time>
      </trkpt>
      <trkpt lat="42.81366" lon="1.41401">
        <ele>1798.283203125</ele>
        <time>2013-09-13T13:12:00Z</time>
      </trkpt>
      <trkpt lat="42.81353" lon="1.41395">
        <ele>1792.515625</ele>
        <time>2013-09-13T13:12:24Z</time>
      </trkpt>
      <trkpt lat="42.81339" lon="1.41389">
        <ele>1782.9020996094</ele>
        <time>2013-09-13T13:12:52Z</time>
      </trkpt>
      <trkpt lat="42.81323" lon="1.4139">
        <ele>1778.5764160156</ele>
        <time>2013-09-13T13:14:05Z</time>
      </trkpt>
      <trkpt lat="42.8131" lon="1.41376">
        <ele>1772.3278808594</ele>
        <time>2013-09-13T13:14:40Z</time>
      </trkpt>
      <trkpt lat="42.81297" lon="1.4138">
        <ele>1766.5598144531</ele>
        <time>2013-09-13T13:15:58Z</time>
      </trkpt>
      <trkpt lat="42.81284" lon="1.41374">
        <ele>1759.8305664062</ele>
        <time>2013-09-13T13:16:17Z</time>
      </trkpt>
      <trkpt lat="42.81264" lon="1.41373">
        <ele>1752.1398925781</ele>
        <time>2013-09-13T13:16:56Z</time>
      </trkpt>
      <trkpt lat="42.8125" lon="1.41375">
        <ele>1744.9301757812</ele>
        <time>2013-09-13T13:17:18Z</time>
      </trkpt>
      <trkpt lat="42.81233" lon="1.41369">
        <ele>1737.7202148438</ele>
        <time>2013-09-13T13:17:42Z</time>
      </trkpt>
      <trkpt lat="42.81208" lon="1.41358">
        <ele>1730.5104980469</ele>
        <time>2013-09-13T13:18:11Z</time>
      </trkpt>
      <trkpt lat="42.81192" lon="1.41363">
        <ele>1726.1845703125</ele>
        <time>2013-09-13T13:18:30Z</time>
      </trkpt>
      <trkpt lat="42.81179" lon="1.41372">
        <ele>1718.4938964844</ele>
        <time>2013-09-13T13:18:48Z</time>
      </trkpt>
      <trkpt lat="42.81165" lon="1.41377">
        <ele>1709.8420410156</ele>
        <time>2013-09-13T13:19:07Z</time>
      </trkpt>
      <trkpt lat="42.81149" lon="1.41378">
        <ele>1705.5161132812</ele>
        <time>2013-09-13T13:19:20Z</time>
      </trkpt>
      <trkpt lat="42.81135" lon="1.4138">
        <ele>1704.07421875</ele>
        <time>2013-09-13T13:19:35Z</time>
      </trkpt>
      <trkpt lat="42.81117" lon="1.41382">
        <ele>1697.3449707031</ele>
        <time>2013-09-13T13:19:50Z</time>
      </trkpt>
      <trkpt lat="42.81099" lon="1.41382">
        <ele>1693.4997558594</ele>
        <time>2013-09-13T13:20:04Z</time>
      </trkpt>
      <trkpt lat="42.81079" lon="1.41386">
        <ele>1682.9250488281</ele>
        <time>2013-09-13T13:20:37Z</time>
      </trkpt>
      <trkpt lat="42.8106" lon="1.4139">
        <ele>1675.7150878906</ele>
        <time>2013-09-13T13:20:57Z</time>
      </trkpt>
      <trkpt lat="42.81044" lon="1.41392">
        <ele>1668.0246582031</ele>
        <time>2013-09-13T13:21:12Z</time>
      </trkpt>
      <trkpt lat="42.8103" lon="1.41396">
        <ele>1665.1408691406</ele>
        <time>2013-09-13T13:21:24Z</time>
      </trkpt>
      <trkpt lat="42.81015" lon="1.41386">
        <ele>1658.8920898438</ele>
        <time>2013-09-13T13:21:40Z</time>
      </trkpt>
      <trkpt lat="42.81006" lon="1.41371">
        <ele>1652.1628417969</ele>
        <time>2013-09-13T13:21:51Z</time>
      </trkpt>
      <trkpt lat="42.80994" lon="1.41356">
        <ele>1646.3952636719</ele>
        <time>2013-09-13T13:22:05Z</time>
      </trkpt>
      <trkpt lat="42.8098" lon="1.41333">
        <ele>1641.1076660156</ele>
        <time>2013-09-13T13:22:34Z</time>
      </trkpt>
      <trkpt lat="42.80968" lon="1.41313">
        <ele>1634.3786621094</ele>
        <time>2013-09-13T13:22:44Z</time>
      </trkpt>
      <trkpt lat="42.80947" lon="1.41292">
        <ele>1630.052734375</ele>
        <time>2013-09-13T13:22:55Z</time>
      </trkpt>
      <trkpt lat="42.8093" lon="1.41275">
        <ele>1624.2846679688</ele>
        <time>2013-09-13T13:23:06Z</time>
      </trkpt>
      <trkpt lat="42.80917" lon="1.41261">
        <ele>1620.439453125</ele>
        <time>2013-09-13T13:23:14Z</time>
      </trkpt>
      <trkpt lat="42.80907" lon="1.41247">
        <ele>1616.1135253906</ele>
        <time>2013-09-13T13:23:25Z</time>
      </trkpt>
      <trkpt lat="42.80885" lon="1.41226">
        <ele>1607.4616699219</ele>
        <time>2013-09-13T13:23:46Z</time>
      </trkpt>
      <trkpt lat="42.8087" lon="1.41218">
        <ele>1602.1743164062</ele>
        <time>2013-09-13T13:24:10Z</time>
      </trkpt>
      <trkpt lat="42.80852" lon="1.41214">
        <ele>1598.8098144531</ele>
        <time>2013-09-13T13:24:22Z</time>
      </trkpt>
      <trkpt lat="42.80838" lon="1.41208">
        <ele>1594.0031738281</ele>
        <time>2013-09-13T13:24:31Z</time>
      </trkpt>
      <trkpt lat="42.80823" lon="1.41206">
        <ele>1586.3127441406</ele>
        <time>2013-09-13T13:24:43Z</time>
      </trkpt>
      <trkpt lat="42.80809" lon="1.41202">
        <ele>1581.0256347656</ele>
        <time>2013-09-13T13:24:53Z</time>
      </trkpt>
      <trkpt lat="42.80794" lon="1.41207">
        <ele>1573.8154296875</ele>
        <time>2013-09-13T13:25:14Z</time>
      </trkpt>
      <trkpt lat="42.80786" lon="1.41204">
        <ele>1569.0090332031</ele>
        <time>2013-09-13T13:27:06Z</time>
      </trkpt>
      <trkpt lat="42.80775" lon="1.41198">
        <ele>1567.0864257812</ele>
        <time>2013-09-13T13:32:22Z</time>
      </trkpt>
      <trkpt lat="42.80761" lon="1.41191">
        <ele>1558.9150390625</ele>
        <time>2013-09-13T13:32:43Z</time>
      </trkpt>
      <trkpt lat="42.80747" lon="1.41186">
        <ele>1550.7438964844</ele>
        <time>2013-09-13T13:33:02Z</time>
      </trkpt>
      <trkpt lat="42.80734" lon="1.41187">
        <ele>1545.9372558594</ele>
        <time>2013-09-13T13:33:14Z</time>
      </trkpt>
      <trkpt lat="42.80718" lon="1.41183">
        <ele>1539.6887207031</ele>
        <time>2013-09-13T13:33:31Z</time>
      </trkpt>
      <trkpt lat="42.80704" lon="1.41184">
        <ele>1535.8435058594</ele>
        <time>2013-09-13T13:33:41Z</time>
      </trkpt>
      <trkpt lat="42.80689" lon="1.41174">
        <ele>1531.0368652344</ele>
        <time>2013-09-13T13:33:51Z</time>
      </trkpt>
      <trkpt lat="42.80674" lon="1.41168">
        <ele>1528.1528320312</ele>
        <time>2013-09-13T13:34:04Z</time>
      </trkpt>
      <trkpt lat="42.80657" lon="1.41157">
        <ele>1527.6721191406</ele>
        <time>2013-09-13T13:34:21Z</time>
      </trkpt>
      <trkpt lat="42.80645" lon="1.41179">
        <ele>1528.1528320312</ele>
        <time>2013-09-13T13:34:51Z</time>
      </trkpt>
      <trkpt lat="42.8064" lon="1.41219">
        <ele>1527.1916503906</ele>
        <time>2013-09-13T13:35:17Z</time>
      </trkpt>
      <trkpt lat="42.80623" lon="1.4134">
        <ele>1519.5012207031</ele>
        <time>2013-09-13T13:38:11Z</time>
      </trkpt>
      <trkpt lat="42.80547" lon="1.41584">
        <ele>1463.2639160156</ele>
        <time>2013-09-13T13:41:32Z</time>
      </trkpt>
      <trkpt lat="42.80543" lon="1.41598">
        <ele>1461.8220214844</ele>
        <time>2013-09-13T13:42:01Z</time>
      </trkpt>
      <trkpt lat="42.80541" lon="1.4162">
        <ele>1459.8991699219</ele>
        <time>2013-09-13T13:42:13Z</time>
      </trkpt>
      <trkpt lat="42.80564" lon="1.41639">
        <ele>1457.49609375</ele>
        <time>2013-09-13T13:42:33Z</time>
      </trkpt>
      <trkpt lat="42.80578" lon="1.41639">
        <ele>1457.49609375</ele>
        <time>2013-09-13T13:42:43Z</time>
      </trkpt>
      <trkpt lat="42.80596" lon="1.41654">
        <ele>1456.0539550781</ele>
        <time>2013-09-13T13:42:58Z</time>
      </trkpt>
      <trkpt lat="42.80599" lon="1.41708">
        <ele>1450.7666015625</ele>
        <time>2013-09-13T13:43:28Z</time>
      </trkpt>
      <trkpt lat="42.80595" lon="1.41788">
        <ele>1444.5180664062</ele>
        <time>2013-09-13T13:44:07Z</time>
      </trkpt>
      <trkpt lat="42.80592" lon="1.41829">
        <ele>1444.0375976562</ele>
        <time>2013-09-13T13:44:27Z</time>
      </trkpt>
      <trkpt lat="42.80591" lon="1.41895">
        <ele>1436.3471679688</ele>
        <time>2013-09-13T13:45:00Z</time>
      </trkpt>
      <trkpt lat="42.80602" lon="1.4194">
        <ele>1434.4243164062</ele>
        <time>2013-09-13T13:45:24Z</time>
      </trkpt>
      <trkpt lat="42.8061" lon="1.41963">
        <ele>1432.0209960938</ele>
        <time>2013-09-13T13:45:49Z</time>
      </trkpt>
      <trkpt lat="42.80616" lon="1.41985">
        <ele>1430.5791015625</ele>
        <time>2013-09-13T13:46:04Z</time>
      </trkpt>
      <trkpt lat="42.80616" lon="1.42007">
        <ele>1428.17578125</ele>
        <time>2013-09-13T13:46:20Z</time>
      </trkpt>
      <trkpt lat="42.80623" lon="1.42028">
        <ele>1426.2531738281</ele>
        <time>2013-09-13T13:46:35Z</time>
      </trkpt>
      <trkpt lat="42.80635" lon="1.42037">
        <ele>1425.2917480469</ele>
        <time>2013-09-13T13:46:48Z</time>
      </trkpt>
      <trkpt lat="42.80655" lon="1.4207">
        <ele>1420.9660644531</ele>
        <time>2013-09-13T13:47:19Z</time>
      </trkpt>
    </trkseg>
  </trk>
</gpx>